createdAt,value
2023-10-20T00:01:53.410Z,7.47
2023-10-20T00:04:21.379Z,7.44
2023-10-20T00:06:49.407Z,7.47
2023-10-20T00:09:19.341Z,7.42
2023-10-20T00:11:49.128Z,7.42
2023-10-20T00:14:18.693Z,7.35
2023-10-20T00:16:46.669Z,7.44
2023-10-20T00:19:14.600Z,7.37
2023-10-20T00:21:43.790Z,7.37
2023-10-20T00:24:12.125Z,7.38
2023-10-20T00:26:40.688Z,7.42
2023-10-20T00:29:10.778Z,7.45
2023-10-20T00:31:39.785Z,7.43
2023-10-20T00:34:07.857Z,7.41
2023-10-20T00:36:35.825Z,7.45
2023-10-20T00:39:04.447Z,7.43
2023-10-20T00:41:32.454Z,7.45
2023-10-20T00:44:00.420Z,7.44
2023-10-20T00:46:30.183Z,7.30
2023-10-20T00:48:59.008Z,7.42
2023-10-20T00:51:27.065Z,7.35
2023-10-20T00:53:56.595Z,7.38
2023-10-20T00:56:25.444Z,7.39
2023-10-20T00:58:53.509Z,7.36
2023-10-20T01:01:21.533Z,7.36
2023-10-20T01:03:51.409Z,7.39
2023-10-20T01:06:19.371Z,7.40
2023-10-20T01:08:47.700Z,7.34
2023-10-20T01:11:15.725Z,7.41
2023-10-20T01:13:43.777Z,7.43
2023-10-20T01:16:11.709Z,7.31
2023-10-20T01:18:39.684Z,7.38
2023-10-20T01:21:09.278Z,7.38
2023-10-20T01:23:39.014Z,7.30
2023-10-20T01:26:08.957Z,7.35
2023-10-20T01:28:36.901Z,7.35
2023-10-20T01:31:04.907Z,7.31
2023-10-20T01:33:32.870Z,7.38
2023-10-20T01:36:01.220Z,7.33
2023-10-20T01:38:29.540Z,7.26
2023-10-20T01:40:57.603Z,7.31
2023-10-20T01:43:27.116Z,7.22
2023-10-20T01:45:56.098Z,7.14
2023-10-20T01:48:24.130Z,7.11
2023-10-20T01:50:52.145Z,7.18
2023-10-20T01:53:20.109Z,7.22
2023-10-20T01:55:50.869Z,7.21
2023-10-20T01:58:19.294Z,7.24
2023-10-20T02:00:50.477Z,7.17
2023-10-20T02:03:19.131Z,7.23
2023-10-20T02:05:47.190Z,7.24
2023-10-20T02:08:15.142Z,7.21
2023-10-20T02:10:45.642Z,7.25
2023-10-20T02:13:13.591Z,7.17
2023-10-20T02:15:48.970Z,7.12
2023-10-20T02:18:17.100Z,7.19
2023-10-20T02:20:45.653Z,7.10
2023-10-20T02:23:13.646Z,7.02
2023-10-20T02:25:41.560Z,7.05
2023-10-20T02:28:09.526Z,7.00
2023-10-20T02:30:37.847Z,7.09
2023-10-20T02:33:07.408Z,6.96
2023-10-20T02:35:35.401Z,7.11
2023-10-20T02:38:03.383Z,7.09
2023-10-20T02:40:31.382Z,7.18
2023-10-20T02:42:59.336Z,7.03
2023-10-20T02:45:27.236Z,7.07
2023-10-20T02:47:55.557Z,6.99
2023-10-20T02:50:25.108Z,7.01
2023-10-20T02:52:53.052Z,6.99
2023-10-20T02:55:20.981Z,7.01
2023-10-20T02:57:48.896Z,6.99
2023-10-20T03:00:19.522Z,7.01
2023-10-20T03:02:49.790Z,7.03
2023-10-20T03:05:18.279Z,6.98
2023-10-20T03:07:47.721Z,6.92
2023-10-20T03:10:16.371Z,6.98
2023-10-20T03:12:44.320Z,7.01
2023-10-20T03:15:13.089Z,6.92
2023-10-20T03:17:41.575Z,7.03
2023-10-20T03:20:10.693Z,6.94
2023-10-20T03:22:38.846Z,6.97
2023-10-20T03:25:11.227Z,7.01
2023-10-20T03:27:40.043Z,6.90
2023-10-20T03:30:09.025Z,6.89
2023-10-20T03:32:37.593Z,6.81
2023-10-20T03:35:08.316Z,6.98
2023-10-20T03:37:36.724Z,6.90
2023-10-20T03:40:05.043Z,6.89
2023-10-20T03:42:34.701Z,7.01
2023-10-20T03:45:02.701Z,7.06
2023-10-20T03:47:35.823Z,6.94
2023-10-20T03:50:04.422Z,6.98
2023-10-20T03:52:32.719Z,6.82
2023-10-20T03:55:01.549Z,6.78
2023-10-20T03:57:29.469Z,6.82
2023-10-20T03:59:59.280Z,6.89
2023-10-20T04:02:27.253Z,6.89
2023-10-20T04:04:55.308Z,6.95
2023-10-20T04:07:25.107Z,6.91
2023-10-20T04:09:53.144Z,6.78
2023-10-20T04:12:21.395Z,6.92
2023-10-20T04:14:49.430Z,6.89
2023-10-20T04:17:18.779Z,6.86
2023-10-20T04:19:46.740Z,6.85
2023-10-20T04:22:14.841Z,6.91
2023-10-20T04:24:45.598Z,6.93
2023-10-20T04:27:22.663Z,6.95
2023-10-20T04:30:18.741Z,6.87
2023-10-20T04:33:08.007Z,6.83
2023-10-20T04:35:53.186Z,6.83
2023-10-20T04:38:38.735Z,6.78
2023-10-20T04:41:23.973Z,6.74
2023-10-20T04:44:22.165Z,6.84
2023-10-20T04:47:25.487Z,6.79
2023-10-20T04:50:15.304Z,6.82
2023-10-20T04:52:59.599Z,6.85
2023-10-20T04:55:45.789Z,6.77
2023-10-20T04:58:22.479Z,6.74
2023-10-20T05:01:00.764Z,6.70
2023-10-20T05:03:46.589Z,6.71
2023-10-20T05:06:23.975Z,6.70
2023-10-20T05:08:52.849Z,6.79
2023-10-20T05:11:20.957Z,6.75
2023-10-20T05:13:49.210Z,6.74
2023-10-20T05:16:17.292Z,6.54
2023-10-20T05:18:46.193Z,6.67
2023-10-20T05:21:14.700Z,6.72
2023-10-20T05:23:45.204Z,6.68
2023-10-20T05:26:13.612Z,6.67
2023-10-20T05:28:41.674Z,6.65
2023-10-20T05:31:09.740Z,6.71
2023-10-20T05:33:37.692Z,6.75
2023-10-20T05:36:06.381Z,6.60
2023-10-20T05:38:34.471Z,6.90
2023-10-20T05:41:03.845Z,6.60
2023-10-20T05:43:32.140Z,6.74
2023-10-20T05:46:00.273Z,6.73
2023-10-20T05:48:28.624Z,6.70
2023-10-20T05:50:58.504Z,6.61
2023-10-20T05:53:26.803Z,6.54
2023-10-20T05:55:54.920Z,6.52
2023-10-20T05:58:24.611Z,6.65
2023-10-20T06:01:02.206Z,6.62
2023-10-20T06:03:32.190Z,6.49
2023-10-20T06:06:01.703Z,6.51
2023-10-20T06:08:30.961Z,6.52
2023-10-20T06:11:04.127Z,6.54
2023-10-20T06:13:35.641Z,6.60
2023-10-20T06:16:10.440Z,6.67
2023-10-20T06:18:39.495Z,6.50
2023-10-20T06:21:08.278Z,6.51
2023-10-20T06:23:36.291Z,6.51
2023-10-20T06:26:04.362Z,6.57
2023-10-20T06:28:33.706Z,6.54
2023-10-20T06:31:16.519Z,6.42
2023-10-20T06:33:44.609Z,6.46
2023-10-20T06:36:12.979Z,6.34
2023-10-20T06:38:46.529Z,6.37
2023-10-20T06:41:15.536Z,6.53
2023-10-20T06:43:45.859Z,6.51
2023-10-20T06:46:14.207Z,6.38
2023-10-20T06:48:42.164Z,6.32
2023-10-20T06:51:10.483Z,6.47
2023-10-20T06:53:38.836Z,6.34
2023-10-20T06:56:15.864Z,6.53
2023-10-20T06:58:48.097Z,6.47
2023-10-20T07:01:16.043Z,6.52
2023-10-20T07:03:44.450Z,6.49
2023-10-20T07:06:13.115Z,6.55
2023-10-20T07:08:41.444Z,6.49
2023-10-20T07:11:09.444Z,6.48
2023-10-20T07:13:38.031Z,6.50
2023-10-20T07:16:07.703Z,6.59
2023-10-20T07:18:36.448Z,6.59
2023-10-20T07:21:04.899Z,6.74
2023-10-20T07:23:33.450Z,6.65
2023-10-20T07:26:01.535Z,6.41
2023-10-20T07:28:29.455Z,6.56
2023-10-20T07:30:57.547Z,6.46
2023-10-20T07:33:26.947Z,6.49
2023-10-20T07:35:54.989Z,6.37
2023-10-20T07:38:23.032Z,6.40
2023-10-20T07:40:50.980Z,6.39
2023-10-20T07:43:18.916Z,6.50
2023-10-20T07:45:47.385Z,6.52
2023-10-20T07:48:15.567Z,6.51
2023-10-20T07:50:47.026Z,6.55
2023-10-20T07:53:15.817Z,6.47
2023-10-20T07:55:45.008Z,6.47
2023-10-20T07:58:12.942Z,6.40
2023-10-20T08:00:40.922Z,6.43
2023-10-20T08:03:10.259Z,6.53
2023-10-20T08:05:38.950Z,6.38
2023-10-20T08:08:08.937Z,6.45
2023-10-20T08:10:39.078Z,6.36
2023-10-20T08:13:07.200Z,6.38
2023-10-20T08:15:38.360Z,6.50
2023-10-20T08:18:08.318Z,6.55
2023-10-20T08:20:37.390Z,6.42
2023-10-20T08:23:06.041Z,6.42
2023-10-20T08:25:39.323Z,6.45
2023-10-20T08:28:08.976Z,6.47
2023-10-20T08:30:37.032Z,6.58
2023-10-20T08:33:06.658Z,6.54
2023-10-20T08:35:35.431Z,6.52
2023-10-20T08:38:04.649Z,6.57
2023-10-20T08:41:01.166Z,6.57
2023-10-20T08:43:24.663Z,6.59
2023-10-20T08:45:52.693Z,6.53
2023-10-20T08:48:20.909Z,6.66
2023-10-20T08:50:51.085Z,6.61
2023-10-20T08:53:21.140Z,6.46
2023-10-20T08:55:51.112Z,6.65
2023-10-20T08:58:19.504Z,6.49
2023-10-20T09:00:58.042Z,6.47
2023-10-20T09:03:27.919Z,6.45
2023-10-20T09:06:05.344Z,6.43
2023-10-20T09:08:35.512Z,6.40
2023-10-20T09:11:08.665Z,6.37
2023-10-20T09:13:39.215Z,6.35
2023-10-20T09:16:09.732Z,6.33
2023-10-20T09:18:45.240Z,6.27
2023-10-20T09:21:14.695Z,6.43
2023-10-20T09:23:43.236Z,6.44
2023-10-20T09:26:12.642Z,6.40
2023-10-20T09:28:43.149Z,6.40
2023-10-20T09:31:12.924Z,6.37
2023-10-20T09:33:41.011Z,6.32
2023-10-20T09:36:09.377Z,6.43
2023-10-20T09:38:38.973Z,6.50
2023-10-20T09:41:13.729Z,6.32
2023-10-20T09:43:49.568Z,6.39
2023-10-20T09:46:28.729Z,6.27
2023-10-20T09:48:58.725Z,6.33
2023-10-20T09:51:26.734Z,6.35
2023-10-20T09:53:55.756Z,6.31
2023-10-20T09:56:24.172Z,6.32
2023-10-20T09:59:00.248Z,6.33
2023-10-20T10:01:28.339Z,6.22
2023-10-20T10:04:04.775Z,6.22
2023-10-20T10:06:37.469Z,6.29
2023-10-20T10:09:06.323Z,6.32
2023-10-20T10:11:41.219Z,6.33
2023-10-20T10:14:19.074Z,6.35
2023-10-20T10:16:54.701Z,6.22
2023-10-20T10:19:25.735Z,6.33
2023-10-20T10:21:55.510Z,6.40
2023-10-20T10:24:25.056Z,6.51
2023-10-20T10:26:55.708Z,6.37
2023-10-20T10:29:49.950Z,6.53
2023-10-20T10:32:20.719Z,6.44
2023-10-20T10:34:50.692Z,6.33
2023-10-20T10:37:30.514Z,6.28
2023-10-20T10:40:10.267Z,6.35
2023-10-20T10:42:42.682Z,6.47
2023-10-20T10:45:24.435Z,6.22
2023-10-20T10:47:53.499Z,6.39
2023-10-20T10:50:23.309Z,6.26
2023-10-20T10:52:52.681Z,6.39
2023-10-20T10:55:21.754Z,6.31
2023-10-20T10:57:49.931Z,6.40
2023-10-20T11:00:18.192Z,6.37
2023-10-20T11:02:48.144Z,6.38
2023-10-20T11:05:17.055Z,6.41
2023-10-20T11:07:57.642Z,6.36
2023-10-20T11:10:28.320Z,6.26
2023-10-20T11:12:56.952Z,6.36
2023-10-20T11:15:29.594Z,6.30
2023-10-20T11:18:00.084Z,6.39
2023-10-20T11:20:30.928Z,6.36
2023-10-20T11:22:59.644Z,6.46
2023-10-20T11:25:27.803Z,6.47
2023-10-20T11:27:56.271Z,6.47
2023-10-20T11:30:26.352Z,6.44
2023-10-20T11:32:55.474Z,6.34
2023-10-20T11:35:26.442Z,6.50
2023-10-20T11:37:54.841Z,6.48
2023-10-20T11:40:23.122Z,6.51
2023-10-20T11:42:51.200Z,6.35
2023-10-20T11:45:19.483Z,6.35
2023-10-20T11:47:47.464Z,6.47
2023-10-20T11:50:16.854Z,6.42
2023-10-20T11:52:46.423Z,6.41
2023-10-20T11:55:14.484Z,6.52
2023-10-20T11:57:42.611Z,6.56
2023-10-20T12:00:11.584Z,6.50
2023-10-20T12:02:40.434Z,6.43
2023-10-20T12:05:08.972Z,6.48
2023-10-20T12:07:37.584Z,6.44
2023-10-20T12:10:10.530Z,6.44
2023-10-20T12:12:38.476Z,6.40
2023-10-20T12:15:08.939Z,6.41
2023-10-20T12:17:38.193Z,6.46
2023-10-20T12:20:07.562Z,6.43
2023-10-20T12:22:35.881Z,6.40
2023-10-20T12:25:04.110Z,6.44
2023-10-20T12:27:33.509Z,6.53
2023-10-20T12:30:01.925Z,6.59
2023-10-20T12:32:30.008Z,6.57
2023-10-20T12:34:58.033Z,6.60
2023-10-20T12:37:26.573Z,6.68
2023-10-20T12:39:54.555Z,6.53
2023-10-20T12:42:22.471Z,6.50
2023-10-20T12:44:51.789Z,6.52
2023-10-20T12:47:20.645Z,6.52
2023-10-20T12:49:48.639Z,6.56
2023-10-20T12:52:16.555Z,6.54
2023-10-20T12:54:44.539Z,6.45
2023-10-20T12:57:12.649Z,6.55
2023-10-20T12:59:40.700Z,6.57
2023-10-20T13:02:10.863Z,6.52
2023-10-20T13:04:39.122Z,6.52
2023-10-20T13:07:07.475Z,6.51
2023-10-20T13:09:35.520Z,6.53
2023-10-20T13:12:03.517Z,6.48
2023-10-20T13:14:31.574Z,6.43
2023-10-20T13:16:59.528Z,6.48
2023-10-20T13:19:28.873Z,6.52
2023-10-20T13:21:56.911Z,6.43
2023-10-20T13:24:24.932Z,6.43
2023-10-20T13:26:53.450Z,6.52
2023-10-20T13:29:21.447Z,6.49
2023-10-20T13:31:49.873Z,6.50
2023-10-20T13:34:17.850Z,6.57
2023-10-20T13:36:47.920Z,6.53
2023-10-20T13:39:18.323Z,6.64
2023-10-20T13:41:58.898Z,6.60
2023-10-20T13:44:27.096Z,6.45
2023-10-20T13:46:55.121Z,6.52
2023-10-20T13:49:23.128Z,6.52
2023-10-20T13:51:52.480Z,6.51
2023-10-20T13:54:20.402Z,6.62
2023-10-20T13:56:48.654Z,6.63
2023-10-20T13:59:17.171Z,6.53
2023-10-20T14:01:45.238Z,6.58
2023-10-20T14:04:13.333Z,6.59
2023-10-20T14:06:41.423Z,6.62
2023-10-20T14:09:10.809Z,6.72
2023-10-20T14:11:38.790Z,6.61
2023-10-20T14:14:06.806Z,6.47
2023-10-20T14:16:35.980Z,6.68
2023-10-20T14:19:04.888Z,6.58
2023-10-20T14:21:32.891Z,6.58
2023-10-20T14:24:01.263Z,6.56
2023-10-20T14:26:30.702Z,6.62
2023-10-20T14:28:58.673Z,6.66
2023-10-20T14:31:30.555Z,6.58
2023-10-20T14:33:59.714Z,6.66
2023-10-20T14:36:28.051Z,6.64
2023-10-20T14:38:57.358Z,6.68
2023-10-20T14:41:25.466Z,6.65
2023-10-20T14:43:54.795Z,6.69
2023-10-20T14:46:22.769Z,6.64
2023-10-20T14:48:52.254Z,6.68
2023-10-20T14:51:20.295Z,6.66
2023-10-20T14:53:50.331Z,6.67
2023-10-20T14:56:18.815Z,6.55
2023-10-20T14:58:47.052Z,6.56
2023-10-20T15:01:16.404Z,6.65
2023-10-20T15:03:44.832Z,6.65
2023-10-20T15:06:13.034Z,6.66
2023-10-20T15:08:41.101Z,6.75
2023-10-20T15:11:09.911Z,6.71
2023-10-20T15:13:37.867Z,6.72
2023-10-20T15:16:07.015Z,6.73
2023-10-20T15:18:36.563Z,6.73
2023-10-20T15:21:06.144Z,6.62
2023-10-20T15:23:34.163Z,6.64
2023-10-20T15:26:05.634Z,6.63
2023-10-20T15:28:35.937Z,6.65
2023-10-20T15:31:08.941Z,6.61
2023-10-20T15:33:38.833Z,6.60
2023-10-20T15:36:07.701Z,6.71
2023-10-20T15:38:36.292Z,6.81
2023-10-20T15:41:05.531Z,6.81
2023-10-20T15:43:33.682Z,6.79
2023-10-20T15:46:01.973Z,6.90
2023-10-20T15:48:30.019Z,6.81
2023-10-20T15:50:59.367Z,6.73
2023-10-20T15:53:27.449Z,6.58
2023-10-20T15:55:55.884Z,6.64
2023-10-20T15:58:23.790Z,6.70
2023-10-20T16:00:51.772Z,6.65
2023-10-20T16:03:20.927Z,6.64
2023-10-20T16:05:49.009Z,6.65
2023-10-20T16:08:18.381Z,6.78
2023-10-20T16:10:46.312Z,6.80
2023-10-20T16:13:14.255Z,6.82
2023-10-20T16:15:42.226Z,6.76
2023-10-20T16:18:10.258Z,6.70
2023-10-20T16:20:38.360Z,6.75
2023-10-20T16:23:06.349Z,6.70
2023-10-20T16:25:36.698Z,6.63
2023-10-20T16:28:05.248Z,6.65
2023-10-20T16:30:33.257Z,6.59
2023-10-20T16:33:01.603Z,6.66
2023-10-20T16:35:30.935Z,6.61
2023-10-20T16:37:59.340Z,6.61
2023-10-20T16:40:28.353Z,6.63
2023-10-20T16:42:58.312Z,6.68
2023-10-20T16:45:26.304Z,6.60
2023-10-20T16:47:54.352Z,6.63
2023-10-20T16:50:22.380Z,6.66
2023-10-20T16:52:50.352Z,6.63
2023-10-20T16:55:18.326Z,6.59
2023-10-20T16:57:46.272Z,6.61
2023-10-20T17:00:16.568Z,6.53
2023-10-20T17:02:44.960Z,6.64
2023-10-20T17:05:13.505Z,6.51
2023-10-20T17:07:42.083Z,6.53
2023-10-20T17:10:10.718Z,6.54
2023-10-20T17:12:38.651Z,6.59
2023-10-20T17:15:08.465Z,6.58
2023-10-20T17:17:38.080Z,6.55
2023-10-20T17:20:06.974Z,6.48
2023-10-20T17:22:34.944Z,6.43
2023-10-20T17:25:03.613Z,6.46
2023-10-20T17:27:31.636Z,6.47
2023-10-20T17:29:59.670Z,6.45
2023-10-20T17:32:27.696Z,6.34
2023-10-20T17:34:57.106Z,6.52
2023-10-20T17:37:25.208Z,6.48
2023-10-20T17:39:53.449Z,6.53
2023-10-20T17:42:21.971Z,6.35
2023-10-20T17:44:49.930Z,6.46
2023-10-20T17:47:17.965Z,6.43
2023-10-20T17:49:45.909Z,6.38
2023-10-20T17:52:15.273Z,6.31
2023-10-20T17:54:44.552Z,6.41
2023-10-20T17:57:12.490Z,6.31
2023-10-20T17:59:40.455Z,6.37
2023-10-20T18:02:09.656Z,6.36
2023-10-20T18:04:37.727Z,6.37
2023-10-20T18:07:05.731Z,6.36
2023-10-20T18:09:35.200Z,6.40
2023-10-20T18:12:04.125Z,6.31
2023-10-20T18:14:33.659Z,6.36
2023-10-20T18:17:01.970Z,6.34
2023-10-20T18:19:30.231Z,6.33
2023-10-20T18:21:58.356Z,6.31
2023-10-20T18:24:26.300Z,6.24
2023-10-20T18:26:55.687Z,6.20
2023-10-20T18:29:23.652Z,6.29
2023-10-20T18:31:51.762Z,6.33
2023-10-20T18:34:19.840Z,6.41
2023-10-20T18:36:47.824Z,6.45
2023-10-20T18:39:17.348Z,6.37
2023-10-20T18:41:45.359Z,6.44
2023-10-20T18:44:14.696Z,6.55
2023-10-20T18:46:42.656Z,6.40
2023-10-20T18:49:10.740Z,6.37
2023-10-20T18:51:38.793Z,6.33
2023-10-20T18:54:09.396Z,6.46
2023-10-20T18:56:37.425Z,6.34
2023-10-20T18:59:06.287Z,6.27
2023-10-20T19:01:35.982Z,6.21
2023-10-20T19:04:06.169Z,6.21
2023-10-20T19:06:34.306Z,6.26
2023-10-20T19:09:04.359Z,6.28
2023-10-20T19:11:32.829Z,6.28
2023-10-20T19:14:00.805Z,6.35
2023-10-20T19:16:32.570Z,6.31
2023-10-20T19:19:02.250Z,6.24
2023-10-20T19:21:30.534Z,6.25
2023-10-20T19:23:58.540Z,6.25
2023-10-20T19:26:26.508Z,6.36
2023-10-20T19:28:54.506Z,6.39
2023-10-20T19:31:22.497Z,6.20
2023-10-20T19:33:51.506Z,6.08
2023-10-20T19:36:21.270Z,6.18
2023-10-20T19:38:49.577Z,6.16
2023-10-20T19:41:18.491Z,6.13
2023-10-20T19:43:46.959Z,6.10
2023-10-20T19:46:15.175Z,6.16
2023-10-20T19:48:43.369Z,6.17
2023-10-20T19:51:11.444Z,6.12
2023-10-20T19:53:40.855Z,6.22
2023-10-20T19:56:09.478Z,6.20
2023-10-20T19:58:37.431Z,6.19
2023-10-20T20:01:05.402Z,6.09
2023-10-20T20:03:33.811Z,6.33
2023-10-20T20:06:09.681Z,6.14
2023-10-20T20:08:37.754Z,6.11
2023-10-20T20:11:07.172Z,6.34
2023-10-20T20:13:35.373Z,6.21
2023-10-20T20:16:07.524Z,6.24
2023-10-20T20:18:35.589Z,6.27
2023-10-20T20:21:03.665Z,6.14
2023-10-20T20:23:31.650Z,6.15
2023-10-20T20:26:00.009Z,6.19
2023-10-20T20:28:29.374Z,6.20
2023-10-20T20:30:58.015Z,6.35
2023-10-20T20:33:26.037Z,6.18
2023-10-20T20:35:54.780Z,6.19
2023-10-20T20:38:22.744Z,6.25
2023-10-20T20:40:51.134Z,6.19
2023-10-20T20:43:20.096Z,6.15
2023-10-20T20:45:56.299Z,6.12
2023-10-20T20:48:24.547Z,6.16
2023-10-20T20:50:52.585Z,6.17
2023-10-20T20:53:20.560Z,6.20
2023-10-20T20:55:48.495Z,6.24
2023-10-20T20:58:16.483Z,6.29
2023-10-20T21:00:44.855Z,6.00
2023-10-20T21:03:14.834Z,6.00
2023-10-20T21:05:43.583Z,6.19
2023-10-20T21:08:11.890Z,6.01
2023-10-20T21:10:39.839Z,6.11
2023-10-20T21:13:08.678Z,6.18
2023-10-20T21:15:38.765Z,6.08
2023-10-20T21:18:06.863Z,6.07
2023-10-20T21:20:40.260Z,6.14
2023-10-20T21:23:08.210Z,6.26
2023-10-20T21:25:38.168Z,6.22
2023-10-20T21:28:07.436Z,6.17
2023-10-20T21:30:37.613Z,6.14
2023-10-20T21:33:05.715Z,6.08
2023-10-20T21:35:41.695Z,6.13
2023-10-20T21:38:11.011Z,6.19
2023-10-20T21:40:44.292Z,6.14
2023-10-20T21:43:12.911Z,6.06
2023-10-20T21:45:40.933Z,6.00
2023-10-20T21:48:09.753Z,5.89
2023-10-20T21:50:37.784Z,6.01
2023-10-20T21:53:07.213Z,6.00
2023-10-20T21:55:35.157Z,5.97
2023-10-20T21:58:03.085Z,5.99
2023-10-20T22:00:32.771Z,5.98
2023-10-20T22:03:01.022Z,5.89
2023-10-20T22:05:29.062Z,5.87
2023-10-20T22:07:57.017Z,6.09
2023-10-20T22:10:26.358Z,5.96
2023-10-20T22:12:54.626Z,6.02
2023-10-20T22:15:24.644Z,6.03
2023-10-20T22:17:52.745Z,5.99
2023-10-20T22:20:20.778Z,6.00
2023-10-20T22:22:49.034Z,6.05
2023-10-20T22:25:17.041Z,6.00
2023-10-20T22:27:46.386Z,5.98
2023-10-20T22:30:14.918Z,6.05
2023-10-20T22:32:43.034Z,6.00
2023-10-20T22:35:11.487Z,6.03
2023-10-20T22:37:39.404Z,6.12
2023-10-20T22:40:10.730Z,6.15
2023-10-20T22:42:38.701Z,6.21
2023-10-20T22:45:09.601Z,6.15
2023-10-20T22:47:37.710Z,6.23
2023-10-20T22:50:08.728Z,6.11
2023-10-20T22:52:37.488Z,6.00
2023-10-20T22:55:05.877Z,6.15
2023-10-20T22:57:33.925Z,6.19
2023-10-20T23:00:02.294Z,6.02
2023-10-20T23:02:31.660Z,6.05
2023-10-20T23:04:59.696Z,6.17
2023-10-20T23:07:27.618Z,6.10
2023-10-20T23:09:55.540Z,6.14
2023-10-20T23:12:23.634Z,6.29
2023-10-20T23:14:52.049Z,6.24
2023-10-20T23:17:20.273Z,6.15
2023-10-20T23:19:49.711Z,6.12
2023-10-20T23:22:17.688Z,6.10
2023-10-20T23:24:46.942Z,6.19
2023-10-20T23:27:15.289Z,6.29
2023-10-20T23:29:43.308Z,6.30
2023-10-20T23:32:11.354Z,6.26
2023-10-20T23:34:39.286Z,6.25
2023-10-20T23:37:09.038Z,6.13
2023-10-20T23:39:37.406Z,6.32
2023-10-20T23:42:06.207Z,6.22
2023-10-20T23:44:34.348Z,6.28
2023-10-20T23:47:02.326Z,6.29
2023-10-20T23:49:30.257Z,6.23
2023-10-20T23:51:58.850Z,6.17
2023-10-20T23:54:28.223Z,6.22
2023-10-20T23:56:56.224Z,6.22
2023-10-20T23:59:24.186Z,6.27
